createdAt,value
2023-01-03T00:00:22.646Z,75.57
2023-01-03T00:03:46.299Z,75.53
2023-01-03T00:06:51.454Z,75.48
2023-01-03T00:09:54.670Z,75.46
2023-01-03T00:12:57.918Z,75.48
2023-01-03T00:16:01.348Z,75.51
2023-01-03T00:19:08.763Z,75.54
2023-01-03T00:22:13.780Z,75.52
2023-01-03T00:25:17.790Z,75.54
2023-01-03T00:28:20.986Z,75.51
2023-01-03T00:31:24.304Z,75.47
2023-01-03T00:34:28.272Z,75.49
2023-01-03T00:37:31.640Z,75.48
2023-01-03T00:40:34.848Z,75.46
2023-01-03T00:43:39.168Z,75.49
2023-01-03T00:46:42.526Z,75.52
2023-01-03T00:49:45.752Z,75.54
2023-01-03T00:52:49.008Z,75.51
2023-01-03T00:55:52.188Z,75.50
2023-01-03T00:58:56.244Z,75.47
2023-01-03T01:01:59.531Z,75.47
2023-01-03T01:05:02.961Z,75.45
2023-01-03T01:08:06.201Z,75.43
2023-01-03T01:11:11.164Z,75.45
2023-01-03T01:14:22.134Z,75.45
2023-01-03T01:17:28.296Z,75.44
2023-01-03T01:20:31.507Z,75.41
2023-01-03T01:23:39.597Z,75.37
2023-01-03T01:26:42.821Z,75.36
2023-01-03T01:29:46.108Z,75.34
2023-01-03T01:32:49.372Z,75.36
2023-01-03T01:35:52.528Z,75.32
2023-01-03T01:38:58.918Z,75.30
2023-01-03T01:42:30.538Z,75.27
2023-01-03T01:45:35.409Z,75.26
2023-01-03T01:48:39.656Z,75.27
2023-01-03T01:51:43.388Z,75.30
2023-01-03T01:54:49.480Z,75.30
2023-01-03T01:57:53.343Z,75.26
2023-01-03T02:00:57.945Z,75.21
2023-01-03T02:04:30.389Z,75.23
2023-01-03T02:07:34.279Z,75.19
2023-01-03T02:10:48.832Z,75.16
2023-01-03T02:14:29.666Z,75.11
2023-01-03T02:17:45.417Z,75.07
2023-01-03T02:20:54.384Z,75.05
2023-01-03T02:23:57.703Z,75.01
2023-01-03T02:27:33.125Z,74.98
2023-01-03T02:30:39.424Z,74.93
2023-01-03T02:33:59.735Z,74.84
2023-01-03T02:37:21.787Z,74.80
2023-01-03T02:40:30.780Z,74.73
2023-01-03T02:43:52.375Z,74.67
2023-01-03T02:47:17.960Z,74.65
2023-01-03T02:50:25.894Z,74.59
2023-01-03T02:53:35.064Z,74.49
2023-01-03T02:56:51.500Z,74.44
2023-01-03T02:59:59.956Z,74.39
2023-01-03T03:03:10.184Z,74.34
2023-01-03T03:06:25.683Z,74.27
2023-01-03T03:09:30.411Z,74.23
2023-01-03T03:12:56.288Z,74.15
2023-01-03T03:16:11.209Z,74.10
2023-01-03T03:19:14.373Z,74.08
2023-01-03T03:22:44.999Z,74.02
2023-01-03T03:25:52.706Z,74.03
2023-01-03T03:29:02.722Z,73.99
2023-01-03T03:32:06.033Z,73.99
2023-01-03T03:35:14.086Z,73.96
2023-01-03T03:38:23.997Z,73.94
2023-01-03T03:42:10.843Z,73.93
2023-01-03T03:45:49.372Z,73.92
2023-01-03T03:49:19.547Z,73.94
2023-01-03T03:52:28.483Z,73.95
2023-01-03T03:55:39.932Z,73.92
2023-01-03T03:58:50.057Z,73.91
2023-01-03T04:01:55.790Z,73.90
2023-01-03T04:05:04.137Z,73.90
2023-01-03T04:08:07.895Z,73.85
2023-01-03T04:11:11.275Z,73.85
2023-01-03T04:14:14.514Z,73.83
2023-01-03T04:17:17.746Z,73.83
2023-01-03T04:20:20.984Z,73.78
2023-01-03T04:23:24.655Z,73.77
2023-01-03T04:26:27.840Z,73.77
2023-01-03T04:29:37.090Z,73.77
2023-01-03T04:32:42.315Z,73.79
2023-01-03T04:35:45.517Z,73.82
2023-01-03T04:38:48.941Z,73.87
2023-01-03T04:41:52.134Z,73.92
2023-01-03T04:44:55.334Z,73.95
2023-01-03T04:47:58.552Z,73.99
2023-01-03T04:51:01.815Z,74.00
2023-01-03T04:54:06.272Z,74.00
2023-01-03T04:57:10.484Z,73.99
2023-01-03T05:00:14.229Z,74.00
2023-01-03T05:03:21.233Z,74.01
2023-01-03T05:06:29.645Z,74.06
2023-01-03T05:09:32.863Z,74.09
2023-01-03T05:12:36.105Z,74.13
2023-01-03T05:15:39.831Z,74.21
2023-01-03T05:18:43.124Z,74.26
2023-01-03T05:22:05.197Z,74.29
2023-01-03T05:25:28.210Z,74.30
2023-01-03T05:28:31.885Z,74.28
2023-01-03T05:31:35.106Z,74.27
2023-01-03T05:34:38.396Z,74.28
2023-01-03T05:37:41.591Z,74.26
2023-01-03T05:40:44.952Z,74.26
2023-01-03T05:43:48.133Z,74.27
2023-01-03T05:46:51.503Z,74.30
2023-01-03T05:49:54.773Z,74.33
2023-01-03T05:52:58.104Z,74.32
2023-01-03T05:56:05.848Z,74.35
2023-01-03T05:59:09.135Z,74.38
2023-01-03T06:02:12.522Z,74.39
2023-01-03T06:05:15.893Z,74.38
2023-01-03T06:08:19.150Z,74.41
2023-01-03T06:11:22.744Z,74.46
2023-01-03T06:14:26.820Z,74.47
2023-01-03T06:17:48.552Z,74.49
2023-01-03T06:20:51.735Z,74.49
2023-01-03T06:23:55.007Z,74.49
2023-01-03T06:26:58.322Z,74.52
2023-01-03T06:30:01.605Z,74.56
2023-01-03T06:33:04.925Z,74.56
2023-01-03T06:36:11.126Z,74.56
2023-01-03T06:39:14.363Z,74.60
2023-01-03T06:42:36.079Z,74.59
2023-01-03T06:45:57.814Z,74.58
2023-01-03T06:49:19.824Z,74.59
2023-01-03T06:52:42.206Z,74.55
2023-01-03T06:55:49.989Z,74.51
2023-01-03T06:58:57.592Z,74.44
2023-01-03T07:02:01.038Z,74.41
2023-01-03T07:05:04.611Z,74.33
2023-01-03T07:08:07.836Z,74.31
2023-01-03T07:11:11.063Z,74.29
2023-01-03T07:14:14.320Z,74.34
2023-01-03T07:17:18.046Z,74.41
2023-01-03T07:20:21.324Z,74.45
2023-01-03T07:23:24.560Z,74.51
2023-01-03T07:26:30.894Z,74.54
2023-01-03T07:29:34.169Z,74.54
2023-01-03T07:32:37.367Z,74.55
2023-01-03T07:35:40.917Z,74.57
2023-01-03T07:38:45.596Z,74.64
2023-01-03T07:42:07.302Z,74.65
2023-01-03T07:45:10.852Z,74.67
2023-01-03T07:48:14.886Z,74.70
2023-01-03T07:51:20.306Z,74.71
2023-01-03T07:54:23.587Z,74.76
2023-01-03T07:57:28.102Z,74.72
2023-01-03T08:00:31.540Z,74.72
2023-01-03T08:03:36.285Z,74.80
2023-01-03T08:06:40.521Z,74.76
2023-01-03T08:10:02.441Z,74.74
2023-01-03T08:13:18.603Z,74.64
2023-01-03T08:16:22.142Z,74.55
2023-01-03T08:19:25.469Z,74.46
2023-01-03T08:22:29.637Z,74.41
2023-01-03T08:25:33.120Z,74.37
2023-01-03T08:28:37.319Z,74.29
2023-01-03T08:31:56.400Z,74.24
2023-01-03T08:35:01.103Z,74.27
2023-01-03T08:38:07.361Z,74.22
2023-01-03T08:41:17.861Z,74.24
2023-01-03T08:44:21.426Z,74.26
2023-01-03T08:47:25.097Z,74.28
2023-01-03T08:50:30.676Z,74.29
2023-01-03T08:53:34.294Z,74.17
2023-01-03T08:56:38.768Z,74.14
2023-01-03T08:59:42.307Z,74.09
2023-01-03T09:02:46.049Z,73.88
2023-01-03T09:05:49.742Z,73.78
2023-01-03T09:08:53.448Z,73.84
2023-01-03T09:11:57.016Z,73.76
2023-01-03T09:15:01.202Z,73.68
2023-01-03T09:18:05.232Z,73.54
2023-01-03T09:21:09.217Z,73.42
2023-01-03T09:24:12.881Z,73.27
2023-01-03T09:27:16.423Z,73.13
2023-01-03T09:30:21.023Z,72.92
2023-01-03T09:33:24.577Z,72.82
2023-01-03T09:36:28.215Z,72.73
2023-01-03T09:39:31.769Z,72.60
2023-01-03T09:42:55.706Z,72.39
2023-01-03T09:46:01.764Z,72.33
2023-01-03T09:49:07.483Z,72.14
2023-01-03T09:52:37.399Z,71.96
2023-01-03T09:56:25.819Z,71.42
2023-01-03T09:59:54.640Z,71.31
2023-01-03T10:03:50.272Z,71.12
2023-01-03T10:07:22.170Z,71.02
2023-01-03T10:10:32.262Z,70.75
2023-01-03T10:14:07.274Z,70.62
2023-01-03T10:17:20.491Z,70.63
2023-01-03T10:20:36.269Z,70.62
2023-01-03T10:23:40.092Z,70.47
2023-01-03T10:26:43.762Z,70.54
2023-01-03T10:29:49.916Z,70.51
2023-01-03T10:33:19.182Z,70.51
2023-01-03T10:36:24.065Z,70.53
2023-01-03T10:39:36.540Z,70.52
2023-01-03T10:42:43.792Z,70.49
2023-01-03T10:45:54.815Z,70.47
2023-01-03T10:49:28.013Z,70.53
2023-01-03T10:52:37.712Z,70.54
2023-01-03T10:55:54.712Z,70.58
2023-01-03T10:59:13.871Z,70.51
2023-01-03T11:02:19.348Z,70.53
2023-01-03T11:05:26.677Z,70.45
2023-01-03T11:08:48.264Z,70.25
2023-01-03T11:12:03.310Z,70.30
2023-01-03T11:15:37.856Z,70.15
2023-01-03T11:18:43.922Z,70.12
2023-01-03T11:22:25.248Z,70.04
2023-01-03T11:25:47.537Z,69.95
2023-01-03T11:29:09.146Z,69.85
2023-01-03T11:32:23.375Z,69.77
2023-01-03T11:35:45.178Z,69.88
2023-01-03T11:39:32.504Z,70.09
2023-01-03T11:42:35.870Z,70.56
2023-01-03T11:45:48.172Z,70.62
2023-01-03T11:48:53.942Z,70.93
2023-01-03T11:52:00.275Z,71.18
2023-01-03T11:55:22.556Z,70.88
2023-01-03T11:58:31.662Z,70.57
2023-01-03T12:01:57.468Z,70.41
2023-01-03T12:05:23.798Z,70.16
2023-01-03T12:08:30.097Z,69.91
2023-01-03T12:11:36.616Z,69.89
2023-01-03T12:15:00.679Z,69.75
2023-01-03T12:18:15.870Z,69.55
2023-01-03T12:21:31.609Z,69.26
2023-01-03T12:25:22.924Z,69.24
2023-01-03T12:28:41.063Z,69.22
2023-01-03T12:32:09.050Z,69.12
2023-01-03T12:35:35.665Z,69.03
2023-01-03T12:38:45.208Z,69.12
2023-01-03T12:42:01.554Z,69.05
2023-01-03T12:45:08.193Z,69.04
2023-01-03T12:48:11.702Z,68.95
2023-01-03T12:51:19.952Z,68.89
2023-01-03T12:54:39.809Z,68.76
2023-01-03T12:57:59.746Z,68.75
2023-01-03T13:01:15.981Z,68.70
2023-01-03T13:04:32.309Z,68.76
2023-01-03T13:07:38.233Z,68.54
2023-01-03T13:10:46.278Z,68.32
2023-01-03T13:13:57.327Z,68.19
2023-01-03T13:17:16.833Z,68.02
2023-01-03T13:20:34.160Z,67.70
2023-01-03T13:23:58.947Z,67.67
2023-01-03T13:27:19.228Z,67.73
2023-01-03T13:30:33.134Z,67.71
2023-01-03T13:33:54.108Z,67.61
2023-01-03T13:37:06.965Z,67.53
2023-01-03T13:40:22.539Z,67.51
2023-01-03T13:43:40.288Z,67.43
2023-01-03T13:46:44.554Z,67.56
2023-01-03T13:49:55.655Z,67.62
2023-01-03T13:53:04.024Z,67.80
2023-01-03T13:56:16.778Z,67.84
2023-01-03T13:59:26.013Z,67.88
2023-01-03T14:02:36.775Z,67.93
2023-01-03T14:06:09.266Z,67.87
2023-01-03T14:09:33.794Z,67.83
2023-01-03T14:12:59.062Z,67.85
2023-01-03T14:16:23.196Z,67.96
2023-01-03T14:19:32.531Z,67.89
2023-01-03T14:22:42.027Z,67.94
2023-01-03T14:25:47.292Z,67.95
2023-01-03T14:28:53.601Z,68.01
2023-01-03T14:31:57.256Z,68.15
2023-01-03T14:35:01.457Z,68.24
2023-01-03T14:38:07.248Z,68.27
2023-01-03T14:41:35.405Z,68.15
2023-01-03T14:44:38.889Z,68.07
2023-01-03T14:47:43.580Z,68.00
2023-01-03T14:50:47.275Z,67.90
2023-01-03T14:53:51.873Z,67.90
2023-01-03T14:56:56.254Z,67.86
2023-01-03T15:00:01.765Z,67.77
2023-01-03T15:03:12.409Z,67.62
2023-01-03T15:06:28.597Z,67.62
2023-01-03T15:09:36.253Z,67.64
2023-01-03T15:12:44.725Z,67.72
2023-01-03T15:15:54.933Z,67.77
2023-01-03T15:19:06.888Z,67.99
2023-01-03T15:22:24.234Z,68.24
2023-01-03T15:25:38.613Z,68.58
2023-01-03T15:29:13.304Z,68.79
2023-01-03T15:32:19.715Z,68.96
2023-01-03T15:35:39.269Z,69.04
2023-01-03T15:38:47.776Z,69.04
2023-01-03T15:42:46.022Z,69.02
2023-01-03T15:46:06.414Z,68.92
2023-01-03T15:49:13.180Z,68.80
2023-01-03T15:52:19.403Z,68.70
2023-01-03T15:55:22.888Z,68.54
2023-01-03T15:58:28.570Z,68.43
2023-01-03T16:01:32.230Z,68.30
2023-01-03T16:04:35.913Z,68.26
2023-01-03T16:07:40.407Z,68.14
2023-01-03T16:10:43.920Z,68.08
2023-01-03T16:14:01.139Z,68.17
2023-01-03T16:17:05.563Z,68.32
2023-01-03T16:20:14.085Z,68.48
2023-01-03T16:23:30.087Z,68.43
2023-01-03T16:26:33.426Z,68.56
2023-01-03T16:29:37.005Z,68.72
2023-01-03T16:32:40.890Z,68.86
2023-01-03T16:35:44.855Z,69.07
2023-01-03T16:38:48.736Z,69.44
2023-01-03T16:42:11.999Z,69.92
2023-01-03T16:45:16.459Z,70.28
2023-01-03T16:48:23.802Z,70.47
2023-01-03T16:51:32.847Z,70.60
2023-01-03T16:54:36.587Z,70.72
2023-01-03T16:57:39.947Z,70.75
2023-01-03T17:00:45.253Z,70.78
2023-01-03T17:03:48.729Z,70.88
2023-01-03T17:06:52.283Z,70.88
2023-01-03T17:09:55.631Z,71.00
2023-01-03T17:13:00.010Z,71.20
2023-01-03T17:16:06.197Z,71.36
2023-01-03T17:20:00.004Z,71.42
2023-01-03T17:22:55.490Z,71.36
2023-01-03T17:25:59.165Z,71.41
2023-01-03T17:29:05.808Z,71.39
2023-01-03T17:32:21.199Z,71.34
2023-01-03T17:35:24.585Z,71.27
2023-01-03T17:38:29.648Z,71.23
2023-01-03T17:41:52.861Z,71.00
2023-01-03T17:45:14.524Z,70.80
2023-01-03T17:48:36.649Z,70.79
2023-01-03T17:51:39.902Z,70.72
2023-01-03T17:54:43.259Z,70.69
2023-01-03T17:57:46.685Z,70.73
2023-01-03T18:00:49.985Z,70.77
2023-01-03T18:03:53.378Z,70.83
2023-01-03T18:06:59.536Z,70.90
2023-01-03T18:10:03.381Z,70.98
2023-01-03T18:13:18.852Z,71.01
2023-01-03T18:16:23.339Z,70.95
2023-01-03T18:19:26.586Z,70.85
2023-01-03T18:22:29.863Z,70.76
2023-01-03T18:25:33.053Z,70.64
2023-01-03T18:28:36.315Z,70.61
2023-01-03T18:31:39.690Z,70.59
2023-01-03T18:34:42.940Z,70.53
2023-01-03T18:37:46.876Z,70.43
2023-01-03T18:40:50.937Z,70.36
2023-01-03T18:43:54.316Z,70.27
2023-01-03T18:46:57.677Z,70.28
2023-01-03T18:50:00.974Z,70.28
2023-01-03T18:53:04.555Z,70.26
2023-01-03T18:56:36.079Z,70.24
2023-01-03T18:59:39.365Z,70.20
2023-01-03T19:02:50.178Z,70.16
2023-01-03T19:05:57.513Z,70.13
2023-01-03T19:09:04.742Z,70.14
2023-01-03T19:15:58.107Z,70.13
2023-01-03T19:19:11.065Z,70.13
2023-01-03T19:22:33.039Z,70.11
2023-01-03T19:25:36.445Z,70.14
2023-01-03T19:28:48.624Z,70.18
2023-01-03T19:31:55.649Z,69.96
2023-01-03T19:34:59.056Z,69.84
2023-01-03T19:38:05.213Z,69.80
2023-01-03T19:41:14.461Z,69.88
2023-01-03T19:44:17.915Z,69.82
2023-01-03T19:47:29.272Z,69.66
2023-01-03T19:51:10.967Z,69.61
2023-01-03T19:54:14.253Z,69.66
2023-01-03T20:01:14.711Z,69.78
2023-01-03T20:04:18.625Z,69.83
2023-01-03T20:07:32.953Z,69.84
2023-01-03T20:10:41.494Z,69.84
2023-01-03T20:13:45.485Z,69.89
2023-01-03T20:17:26.496Z,70.06
2023-01-03T20:20:33.110Z,70.10
2023-01-03T20:23:58.116Z,70.02
2023-01-03T20:27:01.441Z,69.83
2023-01-03T20:30:14.586Z,69.75
2023-01-03T20:33:17.784Z,69.54
2023-01-03T20:36:35.630Z,69.39
2023-01-03T20:39:38.847Z,69.36
2023-01-03T20:42:42.150Z,69.27
2023-01-03T20:45:45.636Z,69.43
2023-01-03T20:48:58.049Z,69.55
2023-01-03T20:52:01.096Z,69.52
2023-01-03T20:55:04.660Z,69.53
2023-01-03T20:58:24.957Z,69.23
2023-01-03T21:01:28.511Z,69.06
2023-01-03T21:04:32.251Z,68.92
2023-01-03T21:08:10.945Z,68.70
2023-01-03T21:11:14.162Z,68.60
2023-01-03T21:14:17.352Z,68.52
2023-01-03T21:17:20.600Z,68.43
2023-01-03T21:20:26.148Z,68.40
2023-01-03T21:23:29.361Z,68.44
2023-01-03T21:26:33.592Z,68.45
2023-01-03T21:29:36.750Z,68.39
2023-01-03T21:32:40.096Z,68.42
2023-01-03T21:35:43.340Z,68.41
2023-01-03T21:38:46.591Z,68.39
2023-01-03T21:42:08.335Z,68.34
2023-01-03T21:45:13.267Z,68.35
2023-01-03T21:48:18.701Z,68.41
2023-01-03T21:51:33.430Z,68.44
2023-01-03T21:54:40.747Z,68.44
2023-01-03T21:57:44.245Z,68.39
2023-01-03T22:00:47.587Z,68.36
2023-01-03T22:04:10.034Z,68.48
2023-01-03T22:07:13.418Z,68.51
2023-01-03T22:10:16.881Z,68.51
2023-01-03T22:17:45.144Z,68.75
2023-01-03T22:20:48.370Z,68.73
2023-01-03T22:23:51.607Z,68.61
2023-01-03T22:26:55.003Z,68.70
2023-01-03T22:29:58.502Z,68.68
2023-01-03T22:33:01.867Z,68.68
2023-01-03T22:36:05.867Z,68.61
2023-01-03T22:39:09.228Z,68.57
2023-01-03T22:42:19.231Z,68.65
2023-01-03T22:45:23.039Z,68.77
2023-01-03T22:48:26.250Z,68.93
2023-01-03T22:51:29.587Z,68.91
2023-01-03T22:54:35.362Z,68.82
2023-01-03T22:57:38.623Z,68.76
2023-01-03T23:00:42.422Z,68.67
2023-01-03T23:03:47.318Z,68.46
2023-01-03T23:06:51.018Z,68.40
2023-01-03T23:09:54.313Z,68.57
2023-01-03T23:13:00.812Z,68.58
2023-01-03T23:16:04.355Z,68.43
2023-01-03T23:19:11.506Z,68.50
2023-01-03T23:22:14.984Z,68.43
2023-01-03T23:25:18.328Z,68.41
2023-01-03T23:28:21.564Z,68.24
2023-01-03T23:31:28.631Z,68.22
2023-01-03T23:34:31.958Z,68.18
2023-01-03T23:37:35.249Z,68.09
2023-01-03T23:40:43.185Z,68.11
2023-01-03T23:43:46.467Z,68.13
2023-01-03T23:46:49.653Z,68.09
2023-01-03T23:49:52.894Z,68.04
2023-01-03T23:52:57.767Z,67.97
2023-01-03T23:56:08.153Z,67.97
2023-01-03T23:59:11.406Z,67.97
